Terminal Aerodrome Forecast
Issued by NWS Northern Indiana

Home | Current Version | Previous Version | Graphics & Text | Print | Product List | Glossary On
Versions: 1 2 3 4 5 6 7 8 9 10 11 12 13 14 15 16 17 18 19
000
FTUS43 KIWX 271600 AAC
TAFFWA
TAF AMD
KFWA 271600Z 2716/2812 18010KT P6SM SCT050 BKN150
      TEMPO 2716/2718 27013G20KT 4SM -TSRA BR BKN020CB
     FM272200 19007KT P6SM BKN100
     FM280700 VRB03KT 3SM BR BKN150=

USA.gov is the U.S. government's official web portal to all federal, state and local government web resources and services.